createdAt,value
2023-02-18T00:01:25.879Z,6.50
2023-02-18T00:03:53.221Z,12.05
2023-02-18T00:06:46.687Z,6.00
2023-02-18T00:09:14.025Z,11.30
2023-02-18T00:11:41.396Z,12.40
2023-02-18T00:14:13.492Z,8.82
2023-02-18T00:16:41.633Z,14.63
2023-02-18T00:19:16.318Z,12.63
2023-02-18T00:21:43.665Z,10.80
2023-02-18T00:24:15.441Z,10.63
2023-02-18T00:26:42.890Z,11.85
2023-02-18T00:29:10.240Z,13.07
2023-02-18T00:31:37.792Z,8.38
2023-02-18T00:34:05.581Z,14.93
2023-02-18T00:36:33.179Z,8.50
2023-02-18T00:39:03.906Z,9.05
2023-02-18T00:41:31.636Z,14.18
2023-02-18T00:43:58.929Z,11.80
2023-02-18T00:46:26.894Z,13.30
2023-02-18T00:48:54.359Z,8.70
2023-02-18T00:51:21.970Z,17.20
2023-02-18T00:53:49.656Z,9.60
2023-02-18T00:56:16.929Z,10.55
2023-02-18T00:58:44.217Z,12.45
2023-02-18T01:01:11.822Z,10.13
2023-02-18T01:03:42.440Z,12.07
2023-02-18T01:06:11.362Z,8.13
2023-02-18T01:08:40.052Z,12.80
2023-02-18T01:11:07.791Z,12.27
2023-02-18T01:13:35.366Z,16.58
2023-02-18T01:16:03.021Z,11.32
2023-02-18T01:18:30.780Z,10.00
2023-02-18T01:20:58.325Z,18.33
2023-02-18T01:23:25.681Z,12.05
2023-02-18T01:25:53.148Z,12.50
2023-02-18T01:28:25.197Z,6.55
2023-02-18T01:30:53.603Z,13.50
2023-02-18T01:33:21.440Z,13.07
2023-02-18T01:35:49.227Z,13.85
2023-02-18T01:38:16.515Z,17.70
2023-02-18T01:40:48.782Z,16.10
2023-02-18T01:43:16.283Z,14.43
2023-02-18T01:45:48.070Z,10.85
2023-02-18T01:48:27.731Z,8.73
2023-02-18T01:51:00.259Z,13.90
2023-02-18T01:53:35.493Z,18.27
2023-02-18T01:56:05.550Z,18.20
2023-02-18T01:58:33.431Z,12.77
2023-02-18T02:01:02.220Z,8.38
2023-02-18T02:03:29.585Z,11.38
2023-02-18T02:05:56.849Z,14.18
2023-02-18T02:08:24.197Z,14.70
2023-02-18T02:11:06.717Z,13.70
2023-02-18T02:14:16.114Z,12.65
2023-02-18T02:17:07.912Z,13.03
2023-02-18T02:19:53.307Z,15.43
2023-02-18T02:22:48.946Z,15.20
2023-02-18T02:25:24.736Z,20.08
2023-02-18T02:28:00.674Z,17.88
2023-02-18T02:30:41.972Z,16.65
2023-02-18T02:33:09.350Z,18.48
2023-02-18T02:36:05.286Z,13.23
2023-02-18T02:38:55.354Z,20.25
2023-02-18T02:41:37.360Z,17.55
2023-02-18T02:44:19.196Z,17.08
2023-02-18T02:46:48.734Z,19.60
2023-02-18T02:49:24.613Z,17.00
2023-02-18T02:52:07.776Z,19.83
2023-02-18T02:54:34.724Z,16.10
2023-02-18T02:57:08.807Z,21.58
2023-02-18T02:59:42.312Z,24.63
2023-02-18T03:02:12.271Z,19.02
2023-02-18T03:05:01.307Z,25.70
2023-02-18T03:07:47.810Z,17.77
2023-02-18T03:10:27.121Z,19.40
2023-02-18T03:13:16.864Z,19.83
2023-02-18T03:15:56.017Z,20.15
2023-02-18T03:18:37.305Z,17.98
2023-02-18T03:21:27.596Z,24.30
2023-02-18T03:24:02.888Z,16.00
2023-02-18T03:26:33.818Z,25.48
2023-02-18T03:29:04.112Z,17.25
2023-02-18T03:31:34.715Z,17.77
2023-02-18T03:34:15.645Z,19.15
2023-02-18T03:36:43.753Z,19.40
2023-02-18T03:39:18.967Z,15.25
2023-02-18T03:41:47.773Z,20.05
2023-02-18T03:44:15.173Z,15.35
2023-02-18T03:46:44.406Z,17.13
2023-02-18T03:49:15.392Z,15.60
2023-02-18T03:51:42.853Z,16.85
2023-02-18T03:54:10.812Z,17.08
2023-02-18T03:56:38.770Z,16.33
2023-02-18T03:59:06.044Z,15.82
2023-02-18T04:01:33.433Z,13.25
2023-02-18T04:04:00.802Z,19.98
2023-02-18T04:06:28.116Z,12.27
2023-02-18T04:08:55.349Z,12.38
2023-02-18T04:11:22.951Z,14.20
2023-02-18T04:13:50.184Z,14.50
2023-02-18T04:16:17.619Z,11.32
2023-02-18T04:18:44.950Z,11.15
2023-02-18T04:21:11.858Z,12.35
2023-02-18T04:23:38.779Z,11.15
2023-02-18T04:26:08.329Z,13.77
2023-02-18T04:28:35.518Z,13.60
2023-02-18T04:31:05.120Z,12.15
2023-02-18T04:33:32.454Z,12.05
2023-02-18T04:35:59.735Z,11.55
2023-02-18T04:38:29.120Z,12.55
2023-02-18T04:40:56.440Z,12.37
2023-02-18T04:43:23.703Z,18.67
2023-02-18T04:45:53.453Z,12.98
2023-02-18T04:48:20.918Z,14.00
2023-02-18T04:50:48.152Z,18.63
2023-02-18T04:53:16.885Z,14.23
2023-02-18T04:55:44.134Z,13.80
2023-02-18T04:58:11.193Z,15.77
2023-02-18T05:00:38.536Z,16.98
2023-02-18T05:03:05.910Z,11.02
2023-02-18T05:05:33.175Z,16.13
2023-02-18T05:08:00.507Z,12.50
2023-02-18T05:10:27.753Z,10.10
2023-02-18T05:12:55.074Z,10.25
2023-02-18T05:15:22.281Z,15.18
2023-02-18T05:17:49.546Z,10.60
2023-02-18T05:20:16.852Z,10.35
2023-02-18T05:22:44.119Z,14.32
2023-02-18T05:25:11.519Z,12.27
2023-02-18T05:27:38.808Z,17.13
2023-02-18T05:30:06.534Z,11.82
2023-02-18T05:32:33.929Z,11.05
2023-02-18T05:35:01.180Z,11.07
2023-02-18T05:37:28.516Z,10.60
2023-02-18T05:39:55.777Z,13.98
2023-02-18T05:42:23.485Z,11.13
2023-02-18T05:44:50.752Z,12.15
2023-02-18T05:47:18.211Z,12.70
2023-02-18T05:49:45.505Z,10.90
2023-02-18T05:52:12.862Z,14.60
2023-02-18T05:54:40.317Z,12.98
2023-02-18T05:57:07.625Z,9.35
2023-02-18T05:59:34.942Z,13.57
2023-02-18T06:02:02.287Z,12.57
2023-02-18T06:04:29.582Z,12.93
2023-02-18T06:06:56.982Z,11.07
2023-02-18T06:09:24.253Z,17.33
2023-02-18T06:11:51.606Z,11.95
2023-02-18T06:14:19.031Z,13.98
2023-02-18T06:16:46.429Z,12.40
2023-02-18T06:19:13.794Z,12.13
2023-02-18T06:21:41.047Z,16.48
2023-02-18T06:24:08.428Z,11.85
2023-02-18T06:26:35.770Z,11.10
2023-02-18T06:29:03.122Z,9.82
2023-02-18T06:31:30.486Z,13.85
2023-02-18T06:33:57.824Z,12.80
2023-02-18T06:36:25.069Z,10.68
2023-02-18T06:38:54.081Z,11.02
2023-02-18T06:41:21.352Z,11.40
2023-02-18T06:43:48.595Z,11.55
2023-02-18T06:46:15.900Z,10.80
2023-02-18T06:48:43.220Z,12.63
2023-02-18T06:51:10.525Z,10.50
2023-02-18T06:53:37.899Z,10.48
2023-02-18T06:56:05.172Z,9.32
2023-02-18T06:58:32.422Z,8.80
2023-02-18T07:00:59.813Z,9.45
2023-02-18T07:03:27.262Z,13.82
2023-02-18T07:05:54.503Z,12.25
2023-02-18T07:08:22.175Z,7.80
2023-02-18T07:10:49.565Z,9.02
2023-02-18T07:13:16.707Z,6.78
2023-02-18T07:15:44.015Z,6.90
2023-02-18T07:18:10.874Z,5.53
2023-02-18T07:20:38.072Z,3.00
2023-02-18T07:23:04.906Z,2.88
2023-02-18T07:25:31.750Z,2.83
2023-02-18T07:27:58.585Z,1.92
2023-02-18T07:30:25.781Z,1.52
2023-02-18T07:32:53.258Z,1.13
2023-02-18T07:35:21.582Z,1.55
2023-02-18T07:37:49.575Z,1.20
2023-02-18T07:40:21.286Z,1.42
2023-02-18T07:42:49.003Z,1.50
2023-02-18T07:45:16.670Z,1.38
2023-02-18T07:47:45.569Z,2.53
2023-02-18T07:50:12.908Z,6.50
2023-02-18T07:52:40.268Z,7.15
2023-02-18T07:55:07.592Z,2.60
2023-02-18T07:57:54.829Z,1.27
2023-02-18T08:00:22.052Z,1.33
2023-02-18T08:02:48.903Z,3.53
2023-02-18T08:05:16.155Z,0.82
2023-02-18T08:07:43.125Z,1.77
2023-02-18T08:10:10.127Z,0.70
2023-02-18T08:12:37.241Z,0.80
2023-02-18T08:15:04.549Z,0.70
2023-02-18T08:17:31.412Z,0.82
2023-02-18T08:19:58.277Z,2.13
2023-02-18T08:22:25.538Z,0.40
2023-02-18T08:24:56.250Z,0.95
2023-02-18T08:27:23.893Z,0.85
2023-02-18T08:29:51.193Z,0.70
2023-02-18T08:32:18.431Z,1.10
2023-02-18T08:34:45.762Z,0.85
2023-02-18T08:37:12.669Z,0.40
2023-02-18T08:39:40.012Z,2.10
2023-02-18T08:42:07.100Z,0.75
2023-02-18T08:44:34.030Z,0.35
2023-02-18T08:47:00.903Z,1.85
2023-02-18T08:49:27.862Z,4.22
2023-02-18T08:51:55.321Z,1.75
2023-02-18T08:54:22.218Z,0.50
2023-02-18T08:56:49.070Z,0.52
2023-02-18T08:59:15.952Z,1.58
2023-02-18T09:01:42.862Z,0.55
2023-02-18T09:04:09.735Z,0.45
2023-02-18T09:06:39.802Z,1.27
2023-02-18T09:09:07.118Z,0.88
2023-02-18T09:11:34.373Z,0.40
2023-02-18T09:14:01.628Z,0.32
2023-02-18T09:16:29.861Z,0.85
2023-02-18T09:18:58.799Z,0.60
2023-02-18T09:21:27.350Z,0.20
2023-02-18T09:23:54.728Z,0.30
2023-02-18T09:26:23.202Z,0.22
2023-02-18T09:28:51.655Z,1.60
2023-02-18T09:31:21.931Z,1.25
2023-02-18T09:36:21.655Z,0.52
2023-02-18T09:38:49.050Z,0.55
2023-02-18T09:41:32.963Z,0.40
2023-02-18T09:44:19.607Z,0.50
2023-02-18T09:46:49.393Z,2.50
2023-02-18T09:49:19.952Z,2.05
2023-02-18T09:51:47.501Z,0.45
2023-02-18T09:54:17.775Z,0.70
2023-02-18T09:56:46.676Z,0.50
2023-02-18T09:59:19.971Z,0.40
2023-02-18T10:01:52.104Z,0.75
2023-02-18T10:04:34.386Z,1.25
2023-02-18T10:07:03.678Z,0.70
2023-02-18T10:09:36.383Z,0.93
2023-02-18T10:12:22.907Z,2.25
2023-02-18T10:14:53.807Z,0.50
2023-02-18T10:17:24.051Z,0.65
2023-02-18T10:19:53.452Z,0.57
2023-02-18T10:22:25.431Z,0.63
2023-02-18T10:25:02.538Z,1.08
2023-02-18T10:27:49.714Z,1.45
2023-02-18T10:30:37.894Z,0.68
2023-02-18T10:33:30.785Z,5.55
2023-02-18T10:36:00.660Z,0.35
2023-02-18T10:38:52.479Z,1.10
2023-02-18T10:41:40.478Z,0.85
2023-02-18T10:44:25.455Z,0.50
2023-02-18T10:47:15.918Z,1.45
2023-02-18T10:50:02.293Z,0.93
2023-02-18T10:52:38.675Z,0.52
2023-02-18T10:55:12.006Z,0.70
2023-02-18T10:57:50.453Z,0.80
2023-02-18T11:00:19.698Z,1.40
2023-02-18T11:02:46.781Z,1.45
2023-02-18T11:05:26.419Z,0.70
2023-02-18T11:08:00.026Z,1.10
2023-02-18T11:10:31.896Z,0.70
2023-02-18T11:13:03.012Z,0.55
2023-02-18T11:15:30.494Z,2.35
2023-02-18T11:18:11.556Z,2.85
2023-02-18T11:20:39.796Z,1.88
2023-02-18T11:23:07.359Z,2.28
2023-02-18T11:25:35.148Z,0.73
2023-02-18T11:28:12.447Z,0.90
2023-02-18T11:30:48.677Z,3.35
2023-02-18T11:33:16.165Z,1.00
2023-02-18T11:35:51.505Z,1.95
2023-02-18T11:38:29.273Z,1.10
2023-02-18T11:41:03.742Z,0.70
2023-02-18T11:43:34.346Z,1.15
2023-02-18T11:46:23.392Z,1.13
2023-02-18T11:48:51.766Z,1.42
2023-02-18T11:51:36.430Z,6.50
2023-02-18T11:54:21.184Z,0.90
2023-02-18T11:57:02.141Z,0.70
2023-02-18T11:59:34.499Z,1.02
2023-02-18T12:02:33.924Z,0.80
2023-02-18T12:05:11.489Z,0.98
2023-02-18T12:07:49.981Z,0.90
2023-02-18T12:10:27.991Z,1.70
2023-02-18T12:13:07.951Z,1.15
2023-02-18T12:16:01.557Z,11.48
2023-02-18T12:18:54.574Z,1.20
2023-02-18T12:21:53.759Z,1.45
2023-02-18T12:24:35.504Z,1.27
2023-02-18T12:27:24.879Z,1.95
2023-02-18T12:30:18.613Z,4.03
2023-02-18T12:33:11.733Z,1.58
2023-02-18T12:36:07.406Z,1.65
2023-02-18T12:39:31.264Z,2.65
2023-02-18T12:42:28.188Z,1.48
2023-02-18T12:45:21.430Z,2.28
2023-02-18T12:48:02.964Z,3.80
2023-02-18T12:51:07.738Z,1.00
2023-02-18T12:53:59.716Z,4.50
2023-02-18T12:56:46.232Z,1.77
2023-02-18T12:59:35.060Z,2.50
2023-02-18T13:02:21.860Z,1.65
2023-02-18T13:05:00.670Z,0.60
2023-02-18T13:07:27.952Z,1.65
2023-02-18T13:10:19.983Z,2.45
2023-02-18T13:12:49.950Z,0.80
2023-02-18T13:15:51.098Z,3.90
2023-02-18T13:18:46.723Z,2.05
2023-02-18T13:21:16.401Z,1.58
2023-02-18T13:23:52.149Z,2.38
2023-02-18T13:26:19.811Z,2.03
2023-02-18T13:29:07.764Z,2.17
2023-02-18T13:31:57.567Z,1.90
2023-02-18T13:34:32.487Z,0.73
2023-02-18T13:37:20.373Z,0.93
2023-02-18T13:39:57.836Z,3.08
2023-02-18T13:42:36.022Z,2.20
2023-02-18T13:45:06.779Z,0.60
2023-02-18T13:47:49.746Z,1.55
2023-02-18T13:50:31.483Z,1.92
2023-02-18T13:53:23.396Z,0.85
2023-02-18T13:56:10.158Z,1.25
2023-02-18T13:59:02.609Z,0.90
2023-02-18T14:01:44.893Z,0.45
2023-02-18T14:04:36.704Z,0.50
2023-02-18T14:07:39.190Z,1.77
2023-02-18T14:10:18.528Z,0.80
2023-02-18T14:12:57.776Z,2.40
2023-02-18T14:15:25.222Z,0.98
2023-02-18T14:18:10.140Z,0.68
2023-02-18T14:20:40.064Z,0.73
2023-02-18T14:23:36.029Z,1.60
2023-02-18T14:26:14.997Z,1.50
2023-02-18T14:28:47.943Z,0.47
2023-02-18T14:31:29.769Z,2.78
2023-02-18T14:34:25.725Z,0.80
2023-02-18T14:37:20.225Z,1.17
2023-02-18T14:39:59.154Z,0.82
2023-02-18T14:42:42.238Z,2.42
2023-02-18T14:45:10.046Z,1.02
2023-02-18T14:48:06.095Z,1.00
2023-02-18T14:50:36.591Z,1.35
2023-02-18T14:53:07.432Z,1.13
2023-02-18T14:55:37.468Z,1.63
2023-02-18T14:58:11.946Z,4.25
2023-02-18T15:00:43.466Z,1.50
2023-02-18T15:03:19.297Z,1.95
2023-02-18T15:05:47.031Z,4.53
2023-02-18T15:08:25.446Z,4.03
2023-02-18T15:10:59.963Z,3.63
2023-02-18T15:13:30.744Z,4.32
2023-02-18T15:16:09.731Z,3.88
2023-02-18T15:18:40.515Z,3.35
2023-02-18T15:21:24.811Z,7.05
2023-02-18T15:23:52.206Z,2.45
2023-02-18T15:26:19.610Z,2.65
2023-02-18T15:29:01.948Z,2.45
2023-02-18T15:31:35.861Z,3.67
2023-02-18T15:34:04.316Z,3.22
2023-02-18T15:36:32.311Z,3.88
2023-02-18T15:38:59.698Z,4.55
2023-02-18T15:41:27.132Z,2.83
2023-02-18T15:44:03.874Z,4.97
2023-02-18T15:46:32.757Z,2.63
2023-02-18T15:49:00.347Z,4.57
2023-02-18T15:51:35.703Z,2.05
2023-02-18T15:54:04.537Z,3.72
2023-02-18T15:56:40.575Z,3.58
2023-02-18T15:59:49.331Z,2.78
2023-02-18T16:02:22.492Z,7.60
2023-02-18T16:04:55.430Z,1.70
2023-02-18T16:07:25.303Z,2.20
2023-02-18T16:10:18.834Z,3.00
2023-02-18T16:13:03.135Z,2.50
2023-02-18T16:15:32.682Z,4.00
2023-02-18T16:18:00.282Z,2.47
2023-02-18T16:20:39.278Z,2.65
2023-02-18T16:23:14.904Z,3.63
2023-02-18T16:25:48.740Z,3.63
2023-02-18T16:28:23.734Z,3.17
2023-02-18T16:30:51.086Z,2.55
2023-02-18T16:33:18.406Z,3.45
2023-02-18T16:35:50.228Z,2.55
2023-02-18T16:38:22.097Z,2.10
2023-02-18T16:40:50.166Z,3.85
2023-02-18T16:43:26.837Z,1.95
2023-02-18T16:49:14.306Z,3.70
2023-02-18T16:51:57.258Z,3.83
2023-02-18T16:54:24.833Z,4.28
2023-02-18T16:57:00.696Z,3.63
2023-02-18T16:59:31.416Z,3.60
2023-02-18T17:02:14.469Z,3.25
2023-02-18T17:04:44.625Z,3.10
2023-02-18T17:07:12.039Z,3.00
2023-02-18T17:09:39.580Z,2.65
2023-02-18T17:12:11.676Z,1.52
2023-02-18T17:14:39.521Z,1.60
2023-02-18T17:17:14.110Z,2.63
2023-02-18T17:19:43.390Z,4.85
2023-02-18T17:22:10.971Z,3.10
2023-02-18T17:24:38.508Z,2.55
2023-02-18T17:27:05.855Z,5.38
2023-02-18T17:29:35.354Z,3.00
2023-02-18T17:32:03.139Z,4.07
2023-02-18T17:34:32.656Z,5.97
2023-02-18T17:37:00.151Z,5.80
2023-02-18T17:39:28.844Z,13.77
2023-02-18T17:41:56.169Z,7.38
2023-02-18T17:44:24.218Z,11.98
2023-02-18T17:46:52.328Z,7.90
2023-02-18T17:49:19.651Z,6.35
2023-02-18T17:52:01.668Z,9.15
2023-02-18T17:58:14.466Z,7.47
2023-02-18T18:00:46.680Z,7.22
2023-02-18T18:03:14.548Z,10.73
2023-02-18T18:05:44.528Z,9.55
2023-02-18T18:08:12.137Z,10.93
2023-02-18T18:10:44.870Z,15.32
2023-02-18T18:13:28.071Z,11.32
2023-02-18T18:15:57.733Z,10.15
2023-02-18T18:18:25.867Z,10.35
2023-02-18T18:20:56.079Z,11.35
2023-02-18T18:23:23.590Z,9.23
2023-02-18T18:26:03.409Z,14.52
2023-02-18T18:28:33.198Z,10.43
2023-02-18T18:31:03.789Z,10.13
2023-02-18T18:33:33.318Z,11.48
2023-02-18T18:36:01.588Z,9.43
2023-02-18T18:38:29.524Z,9.57
2023-02-18T18:41:02.718Z,11.40
2023-02-18T18:43:41.713Z,10.48
2023-02-18T18:46:11.706Z,12.05
2023-02-18T18:48:42.996Z,16.00
2023-02-18T18:51:29.064Z,12.45
2023-02-18T18:53:56.467Z,10.73
2023-02-18T18:56:23.899Z,16.67
2023-02-18T18:58:54.248Z,14.55
2023-02-18T19:01:23.662Z,12.48
2023-02-18T19:03:51.159Z,11.85
2023-02-18T19:06:18.486Z,14.85
2023-02-18T19:08:47.714Z,11.10
2023-02-18T19:11:15.169Z,12.60
2023-02-18T19:13:42.728Z,14.95
2023-02-18T19:16:22.512Z,15.48
2023-02-18T19:18:49.709Z,14.75
2023-02-18T19:21:17.234Z,12.18
2023-02-18T19:23:46.450Z,10.15
2023-02-18T19:26:15.933Z,11.55
2023-02-18T19:28:47.080Z,16.73
2023-02-18T19:31:14.676Z,17.75
2023-02-18T19:33:45.549Z,18.40
2023-02-18T19:36:13.263Z,12.80
2023-02-18T19:38:40.163Z,44.13
2023-02-18T19:41:12.793Z,34.03
2023-02-18T19:43:40.720Z,19.95
2023-02-18T19:46:13.415Z,13.82
2023-02-18T19:48:43.724Z,14.73
2023-02-18T19:51:10.914Z,9.88
2023-02-18T19:53:38.475Z,13.65
2023-02-18T19:56:09.295Z,18.75
2023-02-18T19:58:36.805Z,17.75
2023-02-18T20:01:04.865Z,15.77
2023-02-18T20:03:32.686Z,22.42
2023-02-18T20:06:02.950Z,15.10
2023-02-18T20:08:36.945Z,13.52
2023-02-18T20:11:04.279Z,25.75
2023-02-18T20:13:31.923Z,17.85
2023-02-18T20:15:59.588Z,14.00
2023-02-18T20:18:29.888Z,18.30
2023-02-18T20:20:57.453Z,15.93
2023-02-18T20:23:24.864Z,18.92
2023-02-18T20:25:52.209Z,14.73
2023-02-18T20:28:19.706Z,13.93
2023-02-18T20:30:49.607Z,21.63
2023-02-18T20:33:17.349Z,16.77
2023-02-18T20:35:44.735Z,16.27
2023-02-18T20:38:12.220Z,17.10
2023-02-18T20:40:39.882Z,18.17
2023-02-18T20:43:07.394Z,16.88
2023-02-18T20:45:34.791Z,17.58
2023-02-18T20:48:02.488Z,19.58
2023-02-18T20:50:48.839Z,16.60
2023-02-18T20:53:42.733Z,18.25
2023-02-18T20:56:10.333Z,20.08
2023-02-18T20:58:37.927Z,15.32
2023-02-18T21:01:11.415Z,19.90
2023-02-18T21:03:42.593Z,19.17
2023-02-18T21:06:11.801Z,16.73
2023-02-18T21:08:40.599Z,19.90
2023-02-18T21:11:12.819Z,16.52
2023-02-18T21:13:39.958Z,18.38
2023-02-18T21:16:07.757Z,17.77
2023-02-18T21:18:41.227Z,21.35
2023-02-18T21:21:09.901Z,25.05
2023-02-18T21:23:37.971Z,16.88
2023-02-18T21:26:07.290Z,16.52
2023-02-18T21:28:34.695Z,19.15
2023-02-18T21:31:02.133Z,22.38
2023-02-18T21:33:29.599Z,18.10
2023-02-18T21:35:56.799Z,17.45
2023-02-18T21:38:24.054Z,20.27
2023-02-18T21:40:50.872Z,16.77
2023-02-18T21:43:17.745Z,21.48
2023-02-18T21:45:44.999Z,16.20
2023-02-18T21:48:30.792Z,20.55
2023-02-18T21:51:01.458Z,19.38
2023-02-18T21:53:30.896Z,21.45
2023-02-18T21:56:10.304Z,17.23
2023-02-18T21:58:38.265Z,17.50
2023-02-18T22:01:05.582Z,23.42
2023-02-18T22:03:36.154Z,16.08
2023-02-18T22:06:05.359Z,18.85
2023-02-18T22:08:32.644Z,16.60
2023-02-18T22:11:02.046Z,18.83
2023-02-18T22:13:29.299Z,11.90
2023-02-18T22:15:57.324Z,11.85
2023-02-18T22:18:24.829Z,10.27
2023-02-18T22:20:52.056Z,13.75
2023-02-18T22:23:19.331Z,8.85
2023-02-18T22:25:47.945Z,11.02
2023-02-18T22:28:15.370Z,11.90
2023-02-18T22:30:42.591Z,13.55
2023-02-18T22:33:09.937Z,8.50
2023-02-18T22:35:37.206Z,11.98
2023-02-18T22:38:04.532Z,8.95
2023-02-18T22:40:31.751Z,8.88
2023-02-18T22:42:58.576Z,14.35
2023-02-18T22:45:25.819Z,8.63
2023-02-18T22:47:53.081Z,9.02
2023-02-18T22:50:20.283Z,8.77
2023-02-18T22:52:47.552Z,10.10
2023-02-18T22:55:14.787Z,16.48
2023-02-18T22:57:41.667Z,11.05
2023-02-18T23:00:10.664Z,7.60
2023-02-18T23:02:37.504Z,15.10
2023-02-18T23:05:04.746Z,10.02
2023-02-18T23:07:31.975Z,8.88
2023-02-18T23:09:58.924Z,9.02
2023-02-18T23:12:25.749Z,7.90
2023-02-18T23:14:53.120Z,8.65
2023-02-18T23:17:20.358Z,7.95
2023-02-18T23:19:50.117Z,9.13
2023-02-18T23:22:28.510Z,5.35
2023-02-18T23:24:56.533Z,4.45
2023-02-18T23:27:24.574Z,3.25
2023-02-18T23:29:52.924Z,3.53
2023-02-18T23:32:20.255Z,2.42
2023-02-18T23:34:51.143Z,2.53
2023-02-18T23:37:38.785Z,2.47
2023-02-18T23:40:06.998Z,3.78
2023-02-18T23:42:34.116Z,1.30
2023-02-18T23:45:01.666Z,1.80
2023-02-18T23:47:29.189Z,3.85
2023-02-18T23:49:57.366Z,4.03
2023-02-18T23:52:24.945Z,2.50
2023-02-18T23:54:52.804Z,1.98
2023-02-18T23:57:20.015Z,2.65
2023-02-18T23:59:47.559Z,2.20
